sensor_id;sensor_type;location;lat;lon;timestamp;P1;durP1;ratioP1;P2;durP2;ratioP2
50872;SDS011;72604;40.088;18.346;2023-12-07T00:03:36;54.30;;;45.70;;
50872;SDS011;72604;40.088;18.346;2023-12-07T00:07:18;62.00;;;48.97;;
50872;SDS011;72604;40.088;18.346;2023-12-07T00:10:59;63.70;;;48.53;;
50872;SDS011;72604;40.088;18.346;2023-12-07T00:14:40;64.00;;;51.13;;
50872;SDS011;72604;40.088;18.346;2023-12-07T00:18:21;65.18;;;53.30;;
50872;SDS011;72604;40.088;18.346;2023-12-07T00:22:02;69.95;;;55.03;;
50872;SDS011;72604;40.088;18.346;2023-12-07T00:25:45;66.75;;;56.03;;
50872;SDS011;72604;40.088;18.346;2023-12-07T00:29:26;63.28;;;50.42;;
50872;SDS011;72604;40.088;18.346;2023-12-07T00:33:07;60.30;;;47.50;;
50872;SDS011;72604;40.088;18.346;2023-12-07T00:36:48;47.65;;;38.03;;
50872;SDS011;72604;40.088;18.346;2023-12-07T00:40:29;33.78;;;26.48;;
50872;SDS011;72604;40.088;18.346;2023-12-07T00:44:16;25.97;;;19.97;;
50872;SDS011;72604;40.088;18.346;2023-12-07T00:47:58;26.60;;;18.67;;
50872;SDS011;72604;40.088;18.346;2023-12-07T00:51:39;25.58;;;18.58;;
50872;SDS011;72604;40.088;18.346;2023-12-07T00:55:19;27.30;;;18.20;;
50872;SDS011;72604;40.088;18.346;2023-12-07T00:59:00;25.63;;;19.08;;
50872;SDS011;72604;40.088;18.346;2023-12-07T01:02:43;29.65;;;21.40;;
50872;SDS011;72604;40.088;18.346;2023-12-07T01:06:24;29.15;;;21.70;;
50872;SDS011;72604;40.088;18.346;2023-12-07T01:10:05;31.35;;;22.33;;
50872;SDS011;72604;40.088;18.346;2023-12-07T01:13:46;37.88;;;24.55;;
50872;SDS011;72604;40.088;18.346;2023-12-07T01:17:27;29.23;;;22.95;;
50872;SDS011;72604;40.088;18.346;2023-12-07T01:21:09;26.40;;;21.90;;
50872;SDS011;72604;40.088;18.346;2023-12-07T01:24:49;25.33;;;21.08;;
50872;SDS011;72604;40.088;18.346;2023-12-07T01:28:31;29.45;;;22.48;;
50872;SDS011;72604;40.088;18.346;2023-12-07T01:32:12;31.20;;;25.35;;
50872;SDS011;72604;40.088;18.346;2023-12-07T01:35:54;30.23;;;23.83;;
50872;SDS011;72604;40.088;18.346;2023-12-07T01:39:36;33.03;;;25.40;;
50872;SDS011;72604;40.088;18.346;2023-12-07T01:43:18;27.85;;;21.10;;
50872;SDS011;72604;40.088;18.346;2023-12-07T01:47:00;35.33;;;22.70;;
50872;SDS011;72604;40.088;18.346;2023-12-07T01:50:42;26.25;;;20.02;;
50872;SDS011;72604;40.088;18.346;2023-12-07T01:54:23;26.75;;;18.38;;
50872;SDS011;72604;40.088;18.346;2023-12-07T01:58:05;26.42;;;18.42;;
50872;SDS011;72604;40.088;18.346;2023-12-07T02:01:46;24.98;;;18.98;;
50872;SDS011;72604;40.088;18.346;2023-12-07T02:05:27;28.35;;;19.23;;
50872;SDS011;72604;40.088;18.346;2023-12-07T02:09:08;30.98;;;20.83;;
50872;SDS011;72604;40.088;18.346;2023-12-07T02:12:49;27.75;;;20.27;;
50872;SDS011;72604;40.088;18.346;2023-12-07T02:16:34;27.48;;;20.70;;
50872;SDS011;72604;40.088;18.346;2023-12-07T02:20:17;27.35;;;20.27;;
50872;SDS011;72604;40.088;18.346;2023-12-07T02:24:01;28.25;;;19.90;;
50872;SDS011;72604;40.088;18.346;2023-12-07T02:27:44;25.58;;;18.80;;
50872;SDS011;72604;40.088;18.346;2023-12-07T02:31:26;29.38;;;19.33;;
50872;SDS011;72604;40.088;18.346;2023-12-07T02:35:08;28.92;;;20.10;;
50872;SDS011;72604;40.088;18.346;2023-12-07T02:38:51;30.95;;;20.48;;
50872;SDS011;72604;40.088;18.346;2023-12-07T02:42:33;28.23;;;20.13;;
50872;SDS011;72604;40.088;18.346;2023-12-07T02:46:16;28.15;;;18.80;;
50872;SDS011;72604;40.088;18.346;2023-12-07T02:49:57;31.58;;;18.52;;
50872;SDS011;72604;40.088;18.346;2023-12-07T02:53:38;27.80;;;18.88;;
50872;SDS011;72604;40.088;18.346;2023-12-07T02:57:19;26.55;;;18.60;;
50872;SDS011;72604;40.088;18.346;2023-12-07T03:01:00;26.05;;;17.85;;
50872;SDS011;72604;40.088;18.346;2023-12-07T03:04:43;31.25;;;19.40;;
50872;SDS011;72604;40.088;18.346;2023-12-07T03:08:24;29.08;;;19.38;;
50872;SDS011;72604;40.088;18.346;2023-12-07T03:12:05;30.75;;;20.30;;
50872;SDS011;72604;40.088;18.346;2023-12-07T03:15:46;28.98;;;19.55;;
50872;SDS011;72604;40.088;18.346;2023-12-07T03:19:27;29.95;;;19.73;;
50872;SDS011;72604;40.088;18.346;2023-12-07T03:23:09;28.88;;;20.17;;
50872;SDS011;72604;40.088;18.346;2023-12-07T03:26:50;31.85;;;20.25;;
50872;SDS011;72604;40.088;18.346;2023-12-07T03:30:31;35.58;;;23.05;;
50872;SDS011;72604;40.088;18.346;2023-12-07T03:34:11;32.80;;;20.23;;
50872;SDS011;72604;40.088;18.346;2023-12-07T03:37:55;32.80;;;18.85;;
50872;SDS011;72604;40.088;18.346;2023-12-07T03:41:37;29.42;;;19.30;;
50872;SDS011;72604;40.088;18.346;2023-12-07T03:45:18;31.83;;;21.23;;
50872;SDS011;72604;40.088;18.346;2023-12-07T03:48:59;29.88;;;19.42;;
50872;SDS011;72604;40.088;18.346;2023-12-07T03:52:40;28.67;;;18.67;;
50872;SDS011;72604;40.088;18.346;2023-12-07T03:56:22;36.40;;;21.63;;
50872;SDS011;72604;40.088;18.346;2023-12-07T04:00:05;30.13;;;21.35;;
50872;SDS011;72604;40.088;18.346;2023-12-07T04:03:49;33.78;;;19.65;;
50872;SDS011;72604;40.088;18.346;2023-12-07T04:07:30;31.83;;;20.10;;
50872;SDS011;72604;40.088;18.346;2023-12-07T04:11:11;33.67;;;20.25;;
50872;SDS011;72604;40.088;18.346;2023-12-07T04:14:52;26.50;;;18.13;;
50872;SDS011;72604;40.088;18.346;2023-12-07T04:18:35;31.48;;;19.63;;
50872;SDS011;72604;40.088;18.346;2023-12-07T04:22:16;31.13;;;20.20;;
50872;SDS011;72604;40.088;18.346;2023-12-07T04:25:57;33.33;;;20.75;;
50872;SDS011;72604;40.088;18.346;2023-12-07T04:29:38;30.92;;;19.92;;
50872;SDS011;72604;40.088;18.346;2023-12-07T04:33:19;30.73;;;21.17;;
50872;SDS011;72604;40.088;18.346;2023-12-07T04:37:01;36.38;;;20.48;;
50872;SDS011;72604;40.088;18.346;2023-12-07T04:40:42;27.73;;;19.52;;
50872;SDS011;72604;40.088;18.346;2023-12-07T04:44:23;30.98;;;20.95;;
50872;SDS011;72604;40.088;18.346;2023-12-07T04:48:05;30.35;;;19.77;;
50872;SDS011;72604;40.088;18.346;2023-12-07T04:51:46;29.95;;;19.83;;
50872;SDS011;72604;40.088;18.346;2023-12-07T04:55:28;27.48;;;20.30;;
50872;SDS011;72604;40.088;18.346;2023-12-07T04:59:09;22.90;;;15.52;;
50872;SDS011;72604;40.088;18.346;2023-12-07T05:02:50;20.85;;;12.68;;
50872;SDS011;72604;40.088;18.346;2023-12-07T05:06:31;20.27;;;11.88;;
50872;SDS011;72604;40.088;18.346;2023-12-07T05:10:12;16.75;;;12.10;;
50872;SDS011;72604;40.088;18.346;2023-12-07T05:13:55;17.85;;;11.93;;
50872;SDS011;72604;40.088;18.346;2023-12-07T05:17:37;27.38;;;18.95;;
50872;SDS011;72604;40.088;18.346;2023-12-07T05:21:18;30.38;;;20.67;;
50872;SDS011;72604;40.088;18.346;2023-12-07T05:24:59;22.45;;;15.13;;
50872;SDS011;72604;40.088;18.346;2023-12-07T05:28:40;18.15;;;10.95;;
50872;SDS011;72604;40.088;18.346;2023-12-07T05:32:22;18.00;;;10.60;;
50872;SDS011;72604;40.088;18.346;2023-12-07T05:36:03;14.32;;;9.98;;
50872;SDS011;72604;40.088;18.346;2023-12-07T05:39:44;12.32;;;8.98;;
50872;SDS011;72604;40.088;18.346;2023-12-07T05:43:25;11.45;;;8.50;;
50872;SDS011;72604;40.088;18.346;2023-12-07T05:47:06;15.73;;;8.85;;
50872;SDS011;72604;40.088;18.346;2023-12-07T05:50:49;12.57;;;8.90;;
50872;SDS011;72604;40.088;18.346;2023-12-07T05:54:29;13.77;;;8.43;;
50872;SDS011;72604;40.088;18.346;2023-12-07T05:58:10;11.70;;;8.25;;
50872;SDS011;72604;40.088;18.346;2023-12-07T06:01:51;11.25;;;7.60;;
50872;SDS011;72604;40.088;18.346;2023-12-07T06:05:33;10.85;;;7.70;;
50872;SDS011;72604;40.088;18.346;2023-12-07T06:09:15;13.00;;;8.27;;
50872;SDS011;72604;40.088;18.346;2023-12-07T06:12:58;12.43;;;8.68;;
50872;SDS011;72604;40.088;18.346;2023-12-07T06:16:40;10.70;;;8.32;;
50872;SDS011;72604;40.088;18.346;2023-12-07T06:20:21;11.88;;;7.75;;
50872;SDS011;72604;40.088;18.346;2023-12-07T06:24:02;13.60;;;8.43;;
50872;SDS011;72604;40.088;18.346;2023-12-07T06:27:45;15.50;;;9.10;;
50872;SDS011;72604;40.088;18.346;2023-12-07T06:31:26;12.27;;;9.48;;
50872;SDS011;72604;40.088;18.346;2023-12-07T06:35:07;11.63;;;9.15;;
50872;SDS011;72604;40.088;18.346;2023-12-07T06:38:48;14.52;;;9.95;;
50872;SDS011;72604;40.088;18.346;2023-12-07T06:42:29;11.93;;;9.23;;
50872;SDS011;72604;40.088;18.346;2023-12-07T06:46:12;13.52;;;7.60;;
50872;SDS011;72604;40.088;18.346;2023-12-07T06:49:53;14.15;;;7.88;;
50872;SDS011;72604;40.088;18.346;2023-12-07T06:53:34;13.77;;;7.35;;
50872;SDS011;72604;40.088;18.346;2023-12-07T06:57:16;13.90;;;8.13;;
50872;SDS011;72604;40.088;18.346;2023-12-07T07:00:56;8.05;;;5.63;;
50872;SDS011;72604;40.088;18.346;2023-12-07T07:04:39;10.18;;;5.47;;
50872;SDS011;72604;40.088;18.346;2023-12-07T07:08:20;8.88;;;5.72;;
50872;SDS011;72604;40.088;18.346;2023-12-07T07:12:01;9.15;;;5.40;;
50872;SDS011;72604;40.088;18.346;2023-12-07T07:15:42;8.52;;;4.78;;
50872;SDS011;72604;40.088;18.346;2023-12-07T07:19:24;10.52;;;5.00;;
50872;SDS011;72604;40.088;18.346;2023-12-07T07:23:07;9.38;;;6.10;;
50872;SDS011;72604;40.088;18.346;2023-12-07T07:26:48;14.90;;;9.63;;
50872;SDS011;72604;40.088;18.346;2023-12-07T07:30:29;10.50;;;6.97;;
50872;SDS011;72604;40.088;18.346;2023-12-07T07:34:10;10.48;;;5.85;;
50872;SDS011;72604;40.088;18.346;2023-12-07T07:37:51;7.65;;;5.03;;
50872;SDS011;72604;40.088;18.346;2023-12-07T07:41:35;8.80;;;5.60;;
50872;SDS011;72604;40.088;18.346;2023-12-07T07:45:16;7.80;;;5.47;;
50872;SDS011;72604;40.088;18.346;2023-12-07T07:48:57;10.43;;;6.93;;
50872;SDS011;72604;40.088;18.346;2023-12-07T07:52:38;7.25;;;4.95;;
50872;SDS011;72604;40.088;18.346;2023-12-07T07:56:19;27.02;;;17.05;;
50872;SDS011;72604;40.088;18.346;2023-12-07T08:00:02;10.98;;;8.35;;
50872;SDS011;72604;40.088;18.346;2023-12-07T08:03:44;7.05;;;5.05;;
50872;SDS011;72604;40.088;18.346;2023-12-07T08:07:25;6.32;;;4.13;;
50872;SDS011;72604;40.088;18.346;2023-12-07T08:11:06;5.38;;;3.90;;
50872;SDS011;72604;40.088;18.346;2023-12-07T08:14:48;6.45;;;4.10;;
50872;SDS011;72604;40.088;18.346;2023-12-07T08:18:30;4.82;;;3.60;;
50872;SDS011;72604;40.088;18.346;2023-12-07T08:22:12;7.22;;;4.30;;
50872;SDS011;72604;40.088;18.346;2023-12-07T08:25:52;4.78;;;3.88;;
50872;SDS011;72604;40.088;18.346;2023-12-07T08:29:36;4.47;;;3.35;;
50872;SDS011;72604;40.088;18.346;2023-12-07T08:33:17;5.40;;;3.30;;
50872;SDS011;72604;40.088;18.346;2023-12-07T08:37:00;4.38;;;3.05;;
50872;SDS011;72604;40.088;18.346;2023-12-07T08:40:42;4.45;;;3.17;;
50872;SDS011;72604;40.088;18.346;2023-12-07T08:44:23;4.25;;;3.30;;
50872;SDS011;72604;40.088;18.346;2023-12-07T08:48:04;4.65;;;3.28;;
50872;SDS011;72604;40.088;18.346;2023-12-07T08:51:45;4.63;;;3.00;;
50872;SDS011;72604;40.088;18.346;2023-12-07T08:55:32;6.35;;;3.65;;
50872;SDS011;72604;40.088;18.346;2023-12-07T08:59:13;8.02;;;3.80;;
50872;SDS011;72604;40.088;18.346;2023-12-07T09:02:54;4.30;;;3.13;;
50872;SDS011;72604;40.088;18.346;2023-12-07T09:06:35;3.78;;;2.85;;
50872;SDS011;72604;40.088;18.346;2023-12-07T09:10:16;6.13;;;3.05;;
50872;SDS011;72604;40.088;18.346;2023-12-07T09:13:59;4.85;;;3.17;;
50872;SDS011;72604;40.088;18.346;2023-12-07T09:17:40;4.53;;;2.72;;
50872;SDS011;72604;40.088;18.346;2023-12-07T09:21:21;3.08;;;2.58;;
50872;SDS011;72604;40.088;18.346;2023-12-07T09:25:03;6.20;;;2.90;;
50872;SDS011;72604;40.088;18.346;2023-12-07T09:28:44;5.00;;;2.67;;
50872;SDS011;72604;40.088;18.346;2023-12-07T09:32:26;3.40;;;2.38;;
50872;SDS011;72604;40.088;18.346;2023-12-07T09:36:09;3.67;;;2.70;;
50872;SDS011;72604;40.088;18.346;2023-12-07T09:39:52;3.72;;;2.40;;
50872;SDS011;72604;40.088;18.346;2023-12-07T09:43:33;5.43;;;2.60;;
50872;SDS011;72604;40.088;18.346;2023-12-07T09:47:14;4.18;;;2.38;;
50872;SDS011;72604;40.088;18.346;2023-12-07T09:51:02;2.70;;;2.15;;
50872;SDS011;72604;40.088;18.346;2023-12-07T09:54:43;3.72;;;2.20;;
50872;SDS011;72604;40.088;18.346;2023-12-07T09:58:24;2.40;;;1.90;;
50872;SDS011;72604;40.088;18.346;2023-12-07T10:02:07;4.50;;;2.58;;
50872;SDS011;72604;40.088;18.346;2023-12-07T10:05:54;2.85;;;2.00;;
50872;SDS011;72604;40.088;18.346;2023-12-07T10:09:39;3.17;;;2.20;;
50872;SDS011;72604;40.088;18.346;2023-12-07T10:13:20;3.47;;;2.60;;
50872;SDS011;72604;40.088;18.346;2023-12-07T10:17:03;2.90;;;1.90;;
50872;SDS011;72604;40.088;18.346;2023-12-07T10:20:45;2.95;;;2.22;;
50872;SDS011;72604;40.088;18.346;2023-12-07T10:24:27;4.47;;;1.90;;
50872;SDS011;72604;40.088;18.346;2023-12-07T10:28:12;4.32;;;2.17;;
50872;SDS011;72604;40.088;18.346;2023-12-07T10:31:59;4.25;;;2.20;;
50872;SDS011;72604;40.088;18.346;2023-12-07T10:35:40;3.45;;;2.65;;
50872;SDS011;72604;40.088;18.346;2023-12-07T10:39:21;3.80;;;2.60;;
50872;SDS011;72604;40.088;18.346;2023-12-07T10:43:05;2.40;;;2.20;;
50872;SDS011;72604;40.088;18.346;2023-12-07T10:46:47;3.92;;;2.47;;
50872;SDS011;72604;40.088;18.346;2023-12-07T10:50:29;5.93;;;2.53;;
50872;SDS011;72604;40.088;18.346;2023-12-07T10:54:14;5.47;;;2.83;;
50872;SDS011;72604;40.088;18.346;2023-12-07T10:57:55;4.75;;;2.25;;
50872;SDS011;72604;40.088;18.346;2023-12-07T11:01:36;3.50;;;2.38;;
50872;SDS011;72604;40.088;18.346;2023-12-07T11:05:20;2.63;;;1.85;;
50872;SDS011;72604;40.088;18.346;2023-12-07T11:09:01;3.63;;;2.25;;
50872;SDS011;72604;40.088;18.346;2023-12-07T11:12:45;3.53;;;2.30;;
50872;SDS011;72604;40.088;18.346;2023-12-07T11:16:29;3.40;;;2.22;;
50872;SDS011;72604;40.088;18.346;2023-12-07T11:20:12;2.90;;;2.15;;
50872;SDS011;72604;40.088;18.346;2023-12-07T11:24:00;2.83;;;2.20;;
50872;SDS011;72604;40.088;18.346;2023-12-07T11:27:44;3.05;;;2.10;;
50872;SDS011;72604;40.088;18.346;2023-12-07T11:31:26;3.33;;;2.53;;
50872;SDS011;72604;40.088;18.346;2023-12-07T11:35:11;3.15;;;2.10;;
50872;SDS011;72604;40.088;18.346;2023-12-07T11:42:55;2.45;;;2.05;;
50872;SDS011;72604;40.088;18.346;2023-12-07T11:46:36;2.72;;;2.28;;
50872;SDS011;72604;40.088;18.346;2023-12-07T11:50:17;4.97;;;2.88;;
50872;SDS011;72604;40.088;18.346;2023-12-07T11:53:58;4.75;;;2.58;;
50872;SDS011;72604;40.088;18.346;2023-12-07T11:57:39;3.75;;;2.60;;
50872;SDS011;72604;40.088;18.346;2023-12-07T12:01:21;3.13;;;2.25;;
50872;SDS011;72604;40.088;18.346;2023-12-07T12:05:07;3.90;;;2.50;;
50872;SDS011;72604;40.088;18.346;2023-12-07T12:08:50;3.53;;;2.40;;
50872;SDS011;72604;40.088;18.346;2023-12-07T12:12:32;4.05;;;3.08;;
50872;SDS011;72604;40.088;18.346;2023-12-07T12:16:13;3.95;;;2.40;;
50872;SDS011;72604;40.088;18.346;2023-12-07T12:19:56;3.10;;;2.38;;
50872;SDS011;72604;40.088;18.346;2023-12-07T12:23:38;2.20;;;1.83;;
50872;SDS011;72604;40.088;18.346;2023-12-07T12:27:19;3.72;;;2.33;;
50872;SDS011;72604;40.088;18.346;2023-12-07T12:31:01;4.60;;;2.30;;
50872;SDS011;72604;40.088;18.346;2023-12-07T12:34:42;3.50;;;2.28;;
50872;SDS011;72604;40.088;18.346;2023-12-07T12:38:25;3.63;;;2.40;;
50872;SDS011;72604;40.088;18.346;2023-12-07T12:42:06;5.20;;;2.75;;
50872;SDS011;72604;40.088;18.346;2023-12-07T12:45:48;4.68;;;2.30;;
50872;SDS011;72604;40.088;18.346;2023-12-07T12:49:34;5.28;;;2.50;;
50872;SDS011;72604;40.088;18.346;2023-12-07T12:53:15;3.77;;;3.30;;
50872;SDS011;72604;40.088;18.346;2023-12-07T12:56:57;5.78;;;3.30;;
50872;SDS011;72604;40.088;18.346;2023-12-07T13:00:38;4.50;;;2.85;;
50872;SDS011;72604;40.088;18.346;2023-12-07T13:04:20;4.88;;;2.90;;
50872;SDS011;72604;40.088;18.346;2023-12-07T13:08:01;4.38;;;2.67;;
50872;SDS011;72604;40.088;18.346;2023-12-07T13:11:45;4.53;;;2.75;;
50872;SDS011;72604;40.088;18.346;2023-12-07T13:15:28;5.60;;;2.80;;
50872;SDS011;72604;40.088;18.346;2023-12-07T13:19:10;6.38;;;3.72;;
50872;SDS011;72604;40.088;18.346;2023-12-07T13:22:51;6.78;;;3.08;;
50872;SDS011;72604;40.088;18.346;2023-12-07T13:26:32;5.68;;;3.10;;
50872;SDS011;72604;40.088;18.346;2023-12-07T13:30:13;7.53;;;3.60;;
50872;SDS011;72604;40.088;18.346;2023-12-07T13:33:56;3.92;;;2.78;;
50872;SDS011;72604;40.088;18.346;2023-12-07T13:37:38;6.55;;;4.53;;
50872;SDS011;72604;40.088;18.346;2023-12-07T13:41:19;5.75;;;3.28;;
50872;SDS011;72604;40.088;18.346;2023-12-07T13:45:00;5.72;;;3.55;;
50872;SDS011;72604;40.088;18.346;2023-12-07T13:48:42;5.90;;;4.22;;
50872;SDS011;72604;40.088;18.346;2023-12-07T13:52:25;5.25;;;4.20;;
50872;SDS011;72604;40.088;18.346;2023-12-07T13:56:06;4.95;;;3.40;;
50872;SDS011;72604;40.088;18.346;2023-12-07T13:59:48;4.88;;;3.13;;
50872;SDS011;72604;40.088;18.346;2023-12-07T14:03:30;9.25;;;5.72;;
50872;SDS011;72604;40.088;18.346;2023-12-07T14:07:10;4.90;;;4.03;;
50872;SDS011;72604;40.088;18.346;2023-12-07T14:10:53;8.13;;;4.60;;
50872;SDS011;72604;40.088;18.346;2023-12-07T14:14:34;5.53;;;3.70;;
50872;SDS011;72604;40.088;18.346;2023-12-07T14:18:15;8.38;;;4.47;;
50872;SDS011;72604;40.088;18.346;2023-12-07T14:21:57;5.70;;;3.92;;
50872;SDS011;72604;40.088;18.346;2023-12-07T14:25:38;6.03;;;4.20;;
50872;SDS011;72604;40.088;18.346;2023-12-07T14:29:21;8.48;;;5.40;;
50872;SDS011;72604;40.088;18.346;2023-12-07T14:33:04;6.65;;;3.97;;
50872;SDS011;72604;40.088;18.346;2023-12-07T14:36:45;7.68;;;4.18;;
50872;SDS011;72604;40.088;18.346;2023-12-07T14:40:26;4.15;;;3.67;;
50872;SDS011;72604;40.088;18.346;2023-12-07T14:44:07;10.77;;;4.43;;
50872;SDS011;72604;40.088;18.346;2023-12-07T14:47:51;5.95;;;4.05;;
50872;SDS011;72604;40.088;18.346;2023-12-07T14:51:34;7.20;;;5.68;;
50872;SDS011;72604;40.088;18.346;2023-12-07T14:55:15;3.80;;;2.70;;
50872;SDS011;72604;40.088;18.346;2023-12-07T14:58:58;7.43;;;5.07;;
50872;SDS011;72604;40.088;18.346;2023-12-07T15:02:38;8.70;;;6.72;;
50872;SDS011;72604;40.088;18.346;2023-12-07T15:06:21;7.78;;;6.97;;
50872;SDS011;72604;40.088;18.346;2023-12-07T15:10:05;8.57;;;7.68;;
50872;SDS011;72604;40.088;18.346;2023-12-07T15:13:47;8.93;;;6.60;;
50872;SDS011;72604;40.088;18.346;2023-12-07T15:17:28;4.38;;;3.60;;
50872;SDS011;72604;40.088;18.346;2023-12-07T15:21:08;5.53;;;3.63;;
50872;SDS011;72604;40.088;18.346;2023-12-07T15:24:50;12.20;;;4.03;;
50872;SDS011;72604;40.088;18.346;2023-12-07T15:28:32;3.45;;;3.00;;
50872;SDS011;72604;40.088;18.346;2023-12-07T15:32:13;4.15;;;3.10;;
50872;SDS011;72604;40.088;18.346;2023-12-07T15:35:55;3.47;;;2.78;;
50872;SDS011;72604;40.088;18.346;2023-12-07T15:39:36;3.80;;;2.67;;
50872;SDS011;72604;40.088;18.346;2023-12-07T15:43:19;3.88;;;3.03;;
50872;SDS011;72604;40.088;18.346;2023-12-07T15:47:00;3.35;;;2.67;;
50872;SDS011;72604;40.088;18.346;2023-12-07T15:50:41;3.25;;;2.95;;
50872;SDS011;72604;40.088;18.346;2023-12-07T15:54:22;2.70;;;2.42;;
50872;SDS011;72604;40.088;18.346;2023-12-07T15:58:05;4.07;;;3.00;;
50872;SDS011;72604;40.088;18.346;2023-12-07T16:01:49;10.05;;;7.78;;
50872;SDS011;72604;40.088;18.346;2023-12-07T16:05:30;6.57;;;4.90;;
50872;SDS011;72604;40.088;18.346;2023-12-07T16:09:11;3.17;;;2.53;;
50872;SDS011;72604;40.088;18.346;2023-12-07T16:12:54;3.20;;;2.90;;
50872;SDS011;72604;40.088;18.346;2023-12-07T16:16:34;3.08;;;2.78;;
50872;SDS011;72604;40.088;18.346;2023-12-07T16:20:17;3.30;;;3.00;;
50872;SDS011;72604;40.088;18.346;2023-12-07T16:23:59;4.30;;;3.08;;
50872;SDS011;72604;40.088;18.346;2023-12-07T16:27:40;4.82;;;4.32;;
50872;SDS011;72604;40.088;18.346;2023-12-07T16:31:21;4.30;;;3.75;;
50872;SDS011;72604;40.088;18.346;2023-12-07T16:35:03;4.90;;;4.38;;
50872;SDS011;72604;40.088;18.346;2023-12-07T16:38:45;7.28;;;5.45;;
50872;SDS011;72604;40.088;18.346;2023-12-07T16:42:26;6.35;;;4.57;;
50872;SDS011;72604;40.088;18.346;2023-12-07T16:46:07;6.32;;;4.85;;
50872;SDS011;72604;40.088;18.346;2023-12-07T16:49:48;5.13;;;4.20;;
50872;SDS011;72604;40.088;18.346;2023-12-07T16:53:29;7.65;;;4.57;;
50872;SDS011;72604;40.088;18.346;2023-12-07T16:57:12;6.80;;;4.57;;
50872;SDS011;72604;40.088;18.346;2023-12-07T17:00:53;5.95;;;4.95;;
50872;SDS011;72604;40.088;18.346;2023-12-07T17:04:34;7.55;;;5.10;;
50872;SDS011;72604;40.088;18.346;2023-12-07T17:08:15;5.63;;;4.43;;
50872;SDS011;72604;40.088;18.346;2023-12-07T17:12:00;6.18;;;4.80;;
50872;SDS011;72604;40.088;18.346;2023-12-07T17:15:42;7.22;;;5.30;;
50872;SDS011;72604;40.088;18.346;2023-12-07T17:19:23;9.32;;;5.35;;
50872;SDS011;72604;40.088;18.346;2023-12-07T17:23:06;7.82;;;5.20;;
50872;SDS011;72604;40.088;18.346;2023-12-07T17:26:47;7.50;;;6.00;;
50872;SDS011;72604;40.088;18.346;2023-12-07T17:30:28;11.25;;;6.72;;
50872;SDS011;72604;40.088;18.346;2023-12-07T17:34:10;11.07;;;6.90;;
50872;SDS011;72604;40.088;18.346;2023-12-07T17:37:51;9.30;;;6.53;;
50872;SDS011;72604;40.088;18.346;2023-12-07T17:41:31;10.27;;;6.63;;
50872;SDS011;72604;40.088;18.346;2023-12-07T17:45:12;8.45;;;6.50;;
50872;SDS011;72604;40.088;18.346;2023-12-07T17:48:53;9.32;;;6.28;;
50872;SDS011;72604;40.088;18.346;2023-12-07T17:52:35;12.23;;;7.10;;
50872;SDS011;72604;40.088;18.346;2023-12-07T17:56:16;9.75;;;7.03;;
50872;SDS011;72604;40.088;18.346;2023-12-07T17:59:57;9.10;;;7.07;;
50872;SDS011;72604;40.088;18.346;2023-12-07T18:03:38;10.68;;;7.03;;
50872;SDS011;72604;40.088;18.346;2023-12-07T18:07:19;11.23;;;7.60;;
50872;SDS011;72604;40.088;18.346;2023-12-07T18:11:03;9.57;;;7.65;;
50872;SDS011;72604;40.088;18.346;2023-12-07T18:14:45;10.82;;;8.13;;
50872;SDS011;72604;40.088;18.346;2023-12-07T18:18:26;11.70;;;8.23;;
50872;SDS011;72604;40.088;18.346;2023-12-07T18:22:08;11.60;;;8.65;;
50872;SDS011;72604;40.088;18.346;2023-12-07T18:25:49;11.38;;;8.63;;
50872;SDS011;72604;40.088;18.346;2023-12-07T18:29:32;11.48;;;8.90;;
50872;SDS011;72604;40.088;18.346;2023-12-07T18:33:13;9.88;;;7.70;;
50872;SDS011;72604;40.088;18.346;2023-12-07T18:36:55;8.50;;;6.80;;
50872;SDS011;72604;40.088;18.346;2023-12-07T18:40:36;7.10;;;5.97;;
50872;SDS011;72604;40.088;18.346;2023-12-07T18:44:22;6.25;;;5.20;;
50872;SDS011;72604;40.088;18.346;2023-12-07T18:48:05;6.70;;;5.75;;
50872;SDS011;72604;40.088;18.346;2023-12-07T18:51:46;9.23;;;6.07;;
50872;SDS011;72604;40.088;18.346;2023-12-07T18:55:27;8.40;;;5.78;;
50872;SDS011;72604;40.088;18.346;2023-12-07T18:59:07;9.45;;;6.53;;
50872;SDS011;72604;40.088;18.346;2023-12-07T19:02:49;8.73;;;6.35;;
50872;SDS011;72604;40.088;18.346;2023-12-07T19:06:31;10.02;;;5.63;;
50872;SDS011;72604;40.088;18.346;2023-12-07T19:10:12;10.18;;;5.68;;
50872;SDS011;72604;40.088;18.346;2023-12-07T19:13:54;7.88;;;5.70;;
50872;SDS011;72604;40.088;18.346;2023-12-07T19:17:35;7.70;;;5.65;;
50872;SDS011;72604;40.088;18.346;2023-12-07T19:21:15;7.55;;;5.50;;
50872;SDS011;72604;40.088;18.346;2023-12-07T19:24:58;11.07;;;6.25;;
50872;SDS011;72604;40.088;18.346;2023-12-07T19:28:40;12.30;;;7.75;;
50872;SDS011;72604;40.088;18.346;2023-12-07T19:32:21;12.38;;;8.27;;
50872;SDS011;72604;40.088;18.346;2023-12-07T19:36:02;7.55;;;5.68;;
50872;SDS011;72604;40.088;18.346;2023-12-07T19:39:43;7.53;;;4.47;;
50872;SDS011;72604;40.088;18.346;2023-12-07T19:43:26;7.00;;;4.68;;
50872;SDS011;72604;40.088;18.346;2023-12-07T19:47:07;4.88;;;3.97;;
50872;SDS011;72604;40.088;18.346;2023-12-07T19:50:49;7.28;;;4.65;;
50872;SDS011;72604;40.088;18.346;2023-12-07T19:54:30;6.57;;;4.45;;
50872;SDS011;72604;40.088;18.346;2023-12-07T19:58:10;6.93;;;4.55;;
50872;SDS011;72604;40.088;18.346;2023-12-07T20:01:53;7.32;;;5.00;;
50872;SDS011;72604;40.088;18.346;2023-12-07T20:05:34;7.32;;;4.85;;
50872;SDS011;72604;40.088;18.346;2023-12-07T20:09:15;6.35;;;4.57;;
50872;SDS011;72604;40.088;18.346;2023-12-07T20:12:56;7.85;;;5.90;;
50872;SDS011;72604;40.088;18.346;2023-12-07T20:16:37;6.63;;;4.63;;
50872;SDS011;72604;40.088;18.346;2023-12-07T20:20:20;6.97;;;4.35;;
50872;SDS011;72604;40.088;18.346;2023-12-07T20:24:01;5.95;;;4.10;;
50872;SDS011;72604;40.088;18.346;2023-12-07T20:27:44;7.28;;;4.32;;
50872;SDS011;72604;40.088;18.346;2023-12-07T20:31:25;8.20;;;5.13;;
50872;SDS011;72604;40.088;18.346;2023-12-07T20:35:06;9.38;;;5.60;;
50872;SDS011;72604;40.088;18.346;2023-12-07T20:38:48;7.28;;;4.93;;
50872;SDS011;72604;40.088;18.346;2023-12-07T20:42:29;8.77;;;5.47;;
50872;SDS011;72604;40.088;18.346;2023-12-07T20:46:10;9.35;;;5.80;;
50872;SDS011;72604;40.088;18.346;2023-12-07T20:49:51;8.27;;;5.72;;
50872;SDS011;72604;40.088;18.346;2023-12-07T20:53:33;6.40;;;5.13;;
50872;SDS011;72604;40.088;18.346;2023-12-07T20:57:15;8.43;;;5.40;;
50872;SDS011;72604;40.088;18.346;2023-12-07T21:00:56;7.82;;;5.70;;
50872;SDS011;72604;40.088;18.346;2023-12-07T21:04:37;9.82;;;6.28;;
50872;SDS011;72604;40.088;18.346;2023-12-07T21:08:18;11.55;;;6.82;;
50872;SDS011;72604;40.088;18.346;2023-12-07T21:11:59;8.80;;;5.93;;
50872;SDS011;72604;40.088;18.346;2023-12-07T21:15:42;9.45;;;6.45;;
50872;SDS011;72604;40.088;18.346;2023-12-07T21:19:23;11.82;;;7.13;;
50872;SDS011;72604;40.088;18.346;2023-12-07T21:23:04;9.20;;;6.20;;
50872;SDS011;72604;40.088;18.346;2023-12-07T21:26:45;8.32;;;6.30;;
50872;SDS011;72604;40.088;18.346;2023-12-07T21:30:26;13.43;;;8.63;;
50872;SDS011;72604;40.088;18.346;2023-12-07T21:34:09;15.98;;;9.65;;
50872;SDS011;72604;40.088;18.346;2023-12-07T21:37:50;11.20;;;7.80;;
50872;SDS011;72604;40.088;18.346;2023-12-07T21:41:30;12.02;;;8.40;;
50872;SDS011;72604;40.088;18.346;2023-12-07T21:45:11;12.60;;;8.48;;
50872;SDS011;72604;40.088;18.346;2023-12-07T21:48:52;11.93;;;8.55;;